createdAt,value
2019-04-03T00:02:35.212Z,1008.7
2019-04-03T00:07:31.872Z,1008.8
2019-04-03T00:12:32.092Z,1008.7
2019-04-03T00:17:31.901Z,1008.6
2019-04-03T00:22:31.946Z,1008.6
2019-04-03T00:27:31.909Z,1008.6
2019-04-03T00:32:31.906Z,1008.6
2019-04-03T00:37:31.924Z,1008.6
2019-04-03T00:42:32.011Z,1008.8
2019-04-03T00:47:31.904Z,1008.7
2019-04-03T00:52:32.170Z,1008.7
2019-04-03T00:57:31.927Z,1008.6
2019-04-03T01:02:31.916Z,1008.7
2019-04-03T01:07:32.160Z,1008.6
2019-04-03T01:12:31.928Z,1008.5
2019-04-03T01:17:35.399Z,1008.5
2019-04-03T01:22:31.924Z,1008.5
2019-04-03T01:27:32.088Z,1008.4
2019-04-03T01:32:31.925Z,1008.4
2019-04-03T01:37:31.926Z,1008.4
2019-04-03T01:42:31.950Z,1008.3
2019-04-03T01:47:32.091Z,1008.3
2019-04-03T01:52:32.612Z,1008.3
2019-04-03T01:57:31.936Z,1008.2
2019-04-03T02:02:32.135Z,1008.2
2019-04-03T02:07:32.051Z,1008.2
2019-04-03T02:12:32.201Z,1008.1
2019-04-03T02:17:32.001Z,1008.1
2019-04-03T02:22:31.986Z,1008.1
2019-04-03T02:27:34.146Z,1008.1
2019-04-03T02:32:31.964Z,1008.1
2019-04-03T02:37:32.055Z,1008.1
2019-04-03T02:42:31.967Z,1008
2019-04-03T02:47:34.992Z,1008
2019-04-03T02:52:31.979Z,1008.1
2019-04-03T02:57:32.309Z,1008
2019-04-03T03:02:31.970Z,1008
2019-04-03T03:07:37.570Z,1008
2019-04-03T03:12:32.301Z,1008
2019-04-03T03:17:31.976Z,1007.9
2019-04-03T03:22:32.475Z,1007.9
2019-04-03T03:27:31.992Z,1007.9
2019-04-03T03:32:37.842Z,1007.9
2019-04-03T03:37:36.275Z,1007.8
2019-04-03T03:42:32.902Z,1007.8
2019-04-03T03:47:37.109Z,1007.8
2019-04-03T03:52:39.050Z,1007.8
2019-04-03T03:57:32.004Z,1008
2019-04-03T04:02:32.018Z,1007.9
2019-04-03T04:07:38.737Z,1007.8
2019-04-03T04:12:32.043Z,1007.9
2019-04-03T04:17:32.362Z,1007.9
2019-04-03T04:22:32.121Z,1007.9
2019-04-03T04:27:39.072Z,1007.8
2019-04-03T04:32:32.188Z,1007.8
2019-04-03T04:37:32.312Z,1007.8
2019-04-03T04:42:35.577Z,1007.7
2019-04-03T04:47:32.024Z,1007.7
2019-04-03T04:52:32.190Z,1007.6
2019-04-03T04:57:32.278Z,1007.6
2019-04-03T05:02:32.223Z,1007.6
2019-04-03T05:07:32.059Z,1007.7
2019-04-03T05:12:32.103Z,1007.7
2019-04-03T05:17:32.030Z,1007.7
2019-04-03T05:22:32.261Z,1007.7
2019-04-03T05:27:34.968Z,1007.6
2019-04-03T05:32:32.127Z,1007.6
2019-04-03T05:37:32.067Z,1007.6
2019-04-03T05:42:32.098Z,1007.6
2019-04-03T05:47:32.074Z,1007.5
2019-04-03T05:52:36.060Z,1007.4
2019-04-03T05:57:32.812Z,1007.5
2019-04-03T06:02:32.534Z,1007.3
2019-04-03T06:07:32.524Z,1007.3
2019-04-03T06:12:32.542Z,1007.2
2019-04-03T06:17:32.630Z,1007.2
2019-04-03T06:22:32.669Z,1007.1
2019-04-03T06:27:32.553Z,1007.2
2019-04-03T06:32:32.531Z,1007.2
2019-04-03T06:37:32.537Z,1007.1
2019-04-03T06:42:32.710Z,1006.9
2019-04-03T06:47:33.263Z,1006.9
2019-04-03T06:52:32.567Z,1006.8
2019-04-03T06:57:32.551Z,1006.8
2019-04-03T07:02:32.734Z,1006.6
2019-04-03T07:07:36.172Z,1006.7
2019-04-03T07:12:32.832Z,1006.6
2019-04-03T07:17:33.516Z,1006.5
2019-04-03T07:22:32.571Z,1006.3
2019-04-03T07:27:32.527Z,1006.3
2019-04-03T07:32:32.582Z,1006.3
2019-04-03T07:37:32.895Z,1006.2
2019-04-03T07:42:32.568Z,1006.1
2019-04-03T07:47:36.107Z,1006.2
2019-04-03T07:52:32.861Z,1006.1
2019-04-03T07:57:32.646Z,1006.1
2019-04-03T08:02:34.766Z,1005.9
2019-04-03T08:07:32.967Z,1005.8
2019-04-03T08:12:36.186Z,1005.9
2019-04-03T08:17:32.728Z,1005.9
2019-04-03T08:22:34.209Z,1005.6
2019-04-03T08:27:32.598Z,1005.7
2019-04-03T08:32:32.584Z,1005.7
2019-04-03T08:37:33.475Z,1005.6
2019-04-03T08:42:33.312Z,1005.6
2019-04-03T08:47:32.600Z,1005.6
2019-04-03T08:52:32.561Z,1005.4
2019-04-03T08:57:32.616Z,1005.5
2019-04-03T09:02:32.603Z,1005.4
2019-04-03T09:07:32.865Z,1005.2
2019-04-03T09:12:32.614Z,1005.1
2019-04-03T09:17:34.990Z,1005
2019-04-03T09:22:32.645Z,1005
2019-04-03T09:27:32.813Z,1005
2019-04-03T09:32:32.649Z,1004.8
2019-04-03T09:37:32.638Z,1004.8
2019-04-03T09:42:32.621Z,1004.8
2019-04-03T09:47:35.893Z,1004.6
2019-04-03T09:52:50.209Z,1004.6
2019-04-03T09:57:33.132Z,1004.6
2019-04-03T10:02:32.776Z,1004.5
2019-04-03T10:07:37.582Z,1004.4
2019-04-03T10:12:33.345Z,1004.3
2019-04-03T10:17:32.772Z,1004.3
2019-04-03T10:22:33.057Z,1004.2
2019-04-03T10:27:32.908Z,1004.1
2019-04-03T10:32:32.613Z,1004.1
2019-04-03T10:37:32.726Z,1004.1
2019-04-03T10:42:33.133Z,1004
2019-04-03T10:47:44.891Z,1004
2019-04-03T10:52:33.007Z,1003.9
2019-04-03T10:57:36.133Z,1003.9
2019-04-03T11:02:32.924Z,1003.8
2019-04-03T11:07:32.653Z,1003.6
2019-04-03T11:12:33.238Z,1003.6
2019-04-03T11:17:33.142Z,1003.5
2019-04-03T11:22:43.895Z,1003.5
2019-04-03T11:29:43.324Z,1003.5
2019-04-03T11:32:33.252Z,1003.5
2019-04-03T11:37:34.104Z,1003.5
2019-04-03T11:42:33.275Z,1003.4
2019-04-03T11:47:32.791Z,1003.5
2019-04-03T11:52:33.263Z,1003.4
2019-04-03T11:57:33.302Z,1003.4
2019-04-03T12:02:33.239Z,1003.3
2019-04-03T12:07:32.923Z,1003.1
2019-04-03T12:12:32.994Z,1003.1
2019-04-03T12:17:32.715Z,1003
2019-04-03T12:22:32.701Z,1002.9
2019-04-03T12:27:36.985Z,1002.9
2019-04-03T12:32:48.883Z,1002.9
2019-04-03T12:37:32.730Z,1002.8
2019-04-03T12:42:33.491Z,1002.7
2019-04-03T12:47:32.758Z,1002.7
2019-04-03T12:52:33.259Z,1002.5
2019-04-03T12:57:34.684Z,1002.5
2019-04-03T13:02:32.737Z,1002.4
2019-04-03T13:07:37.610Z,1002.3
2019-04-03T13:12:32.909Z,1002.2
2019-04-03T13:17:33.274Z,1002.1
2019-04-03T13:22:32.771Z,1002.1
2019-04-03T13:27:33.100Z,1002
2019-04-03T13:32:32.964Z,1002
2019-04-03T13:37:33.381Z,1002
2019-04-03T13:42:32.697Z,1001.9
2019-04-03T13:47:33.051Z,1001.9
2019-04-03T13:52:49.159Z,1001.8
2019-04-03T13:57:33.067Z,1001.7
2019-04-03T14:02:33.335Z,1001.7
2019-04-03T14:07:33.158Z,1001.6
2019-04-03T14:12:33.149Z,1001.4
2019-04-03T14:17:37.243Z,1001.4
2019-04-03T14:22:32.987Z,1001.3
2019-04-03T14:27:33.004Z,1001.2
2019-04-03T14:32:33.231Z,1001.3
2019-04-03T14:37:33.407Z,1001.1
2019-04-03T14:42:33.232Z,1001.2
2019-04-03T14:47:34.660Z,1001.2
2019-04-03T14:52:33.332Z,1001.1
2019-04-03T14:57:33.398Z,1001.2
2019-04-03T15:02:33.265Z,1000.9
2019-04-03T15:07:33.457Z,1001
2019-04-03T15:12:32.810Z,1001
2019-04-03T15:17:38.695Z,1001
2019-04-03T15:22:33.885Z,1000.9
2019-04-03T15:27:32.785Z,1001
2019-04-03T15:32:33.275Z,1000.9
2019-04-03T15:37:32.951Z,1001
2019-04-03T15:42:32.824Z,1000.8
2019-04-03T15:47:47.066Z,1000.8
2019-04-03T15:52:32.873Z,1001
2019-04-03T15:57:33.298Z,1000.9
2019-04-03T16:02:32.843Z,1000.8
2019-04-03T16:07:34.373Z,1000.9
2019-04-03T16:12:43.404Z,1000.9
2019-04-03T16:17:38.442Z,1000.8
2019-04-03T16:22:32.841Z,1000.8
2019-04-03T16:27:33.408Z,1000.8
2019-04-03T16:32:33.179Z,1000.8
2019-04-03T16:37:32.964Z,1000.8
2019-04-03T16:42:33.222Z,1000.7
2019-04-03T16:47:32.851Z,1000.7
2019-04-03T16:52:38.643Z,1000.8
2019-04-03T16:57:33.010Z,1000.7
2019-04-03T17:02:33.637Z,1000.7
2019-04-03T17:07:33.079Z,1000.7
2019-04-03T17:12:32.999Z,1000.8
2019-04-03T17:17:33.053Z,1000.8
2019-04-03T17:22:33.569Z,1000.7
2019-04-03T17:27:33.494Z,1000.8
2019-04-03T17:32:33.069Z,1000.9
2019-04-03T17:37:33.691Z,1000.8
2019-04-03T17:42:33.161Z,1000.8
2019-04-03T17:47:32.934Z,1001
2019-04-03T17:52:33.016Z,1001.1
2019-04-03T17:57:33.118Z,1001.1
2019-04-03T18:02:33.141Z,1001.1
2019-04-03T18:07:33.022Z,1001.3
2019-04-03T18:12:33.034Z,1001.3
2019-04-03T18:17:33.061Z,1001.3
2019-04-03T18:22:33.038Z,1001.3
2019-04-03T18:27:34.386Z,1001.4
2019-04-03T18:32:33.179Z,1001.4
2019-04-03T18:37:35.226Z,1001.4
2019-04-03T18:42:33.004Z,1001.4
2019-04-03T18:47:46.669Z,1001.6
2019-04-03T18:52:33.059Z,1001.6
2019-04-03T18:57:33.054Z,1001.6
2019-04-03T19:02:35.426Z,1001.7
2019-04-03T19:07:33.197Z,1001.7
2019-04-03T19:12:36.476Z,1001.8
2019-04-03T19:17:33.028Z,1001.8
2019-04-03T19:22:33.173Z,1001.8
2019-04-03T19:27:33.929Z,1001.9
2019-04-03T19:32:33.112Z,1001.9
2019-04-03T19:37:34.666Z,1001.9
2019-04-03T19:42:32.991Z,1001.9
2019-04-03T19:47:32.997Z,1002.1
2019-04-03T19:52:33.175Z,1002.1
2019-04-03T19:57:32.963Z,1001.9
2019-04-03T20:02:33.073Z,1002
2019-04-03T20:07:33.075Z,1002
2019-04-03T20:12:33.307Z,1002.1
2019-04-03T20:17:35.003Z,1002.1
2019-04-03T20:22:33.166Z,1002.2
2019-04-03T20:27:33.404Z,1002.2
2019-04-03T20:32:33.154Z,1002.1
2019-04-03T20:37:32.967Z,1002.1
2019-04-03T20:42:32.976Z,1002.2
2019-04-03T20:47:33.141Z,1002.2
2019-04-03T20:52:33.114Z,1002.2
2019-04-03T20:57:34.224Z,1002.1
2019-04-03T21:02:32.986Z,1002.2
2019-04-03T21:07:32.959Z,1002.2
2019-04-03T21:12:36.670Z,1002
2019-04-03T21:17:32.978Z,1002.2
2019-04-03T21:22:32.985Z,1002.2
2019-04-03T21:27:32.959Z,1002.2
2019-04-03T21:32:32.999Z,1002.1
2019-04-03T21:37:32.994Z,1002.1
2019-04-03T21:42:33.203Z,1002.1
2019-04-03T21:47:33.107Z,1002.2
2019-04-03T21:52:33.059Z,1002.3
2019-04-03T21:57:33.229Z,1002.2
2019-04-03T22:02:33.006Z,1002.2
2019-04-03T22:07:33.172Z,1002.2
2019-04-03T22:12:33.005Z,1002.2
2019-04-03T22:17:33.010Z,1002.1
2019-04-03T22:22:34.631Z,1002.2
2019-04-03T22:27:33.206Z,1002.2
2019-04-03T22:32:33.135Z,1002.2
2019-04-03T22:37:36.110Z,1002.1
2019-04-03T22:42:33.019Z,1002.2
2019-04-03T22:47:33.018Z,1002.2
2019-04-03T22:52:33.018Z,1002.3
2019-04-03T22:57:33.200Z,1002.2
2019-04-03T23:02:33.226Z,1002.2
2019-04-03T23:07:33.165Z,1002.3
2019-04-03T23:12:34.214Z,1002.3
2019-04-03T23:17:33.023Z,1002.3
2019-04-03T23:22:33.053Z,1002.1
2019-04-03T23:27:33.795Z,1002.1
2019-04-03T23:32:33.042Z,1002.1
2019-04-03T23:37:33.162Z,1002
2019-04-03T23:42:33.189Z,1002.1
2019-04-03T23:47:33.060Z,1001.9
2019-04-03T23:52:33.024Z,1001.9
2019-04-03T23:57:33.061Z,1002
